Airfield :
LOGIN :

Register | Disclaimer

   EN    FR    IT 

 










Legend :    VFR   Marginal VFR   IFR   Intensive IFR   Very Intensive IFR
Visi :
Ceiling :
>= 8 km
>= 3000ft
5 to 8 km
1000 to 3000 ft
1500m to 5 km
500 to 1000 ft
800 to 1500m
200 to 500 ft
< 800m
< 200 ft
Symbols :   Thunderstorms  Fog  Heavy snow  Heavy precipitations  Wind > 20 kt
SIGMETs :     Misc.  Thunderstorms  Icing  Turbulence  Mountain Waves  Volcanic Ashes






- Airport Elevation : 219 ft
- IATA code : DNR


LFRD - Dinard

CURRENT METAR :
  • 170700Z AUTO 18003KT 150V210 7000 -RA NSC 04/04 Q1009 TEMPO 3000 BR BKN003

EXPIRED METARs :
  • 170630Z AUTO 17005KT 5000 BR NSC 04/04 Q1008 TEMPO BKN003
  • 170600Z AUTO 17004KT 6000 NSC 04/04 Q1009 TEMPO 3000 BR BKN003
  • 170530Z AUTO 18004KT 6000 BKN043 BKN068 04/03 Q1008 TEMPO 3000 BR BKN003
  • 170500Z AUTO VRB02KT 9000 NSC 05/04 Q1009 TEMPO 0500 FG VV///
  • 170430Z AUTO 17004KT 9000 NSC 05/04 Q1008 TEMPO 0500 FG VV///

TAF TAF LFRD
Valid from the 17 at 06:00 until the 18 at 06:00 UTC


170500Z 1706/1806 VRB03KT 9999 SCT030
PROB30
TEMPO 1706/1709 3000 BR BKN003
TEMPO 1709/1722 BKN010
BECMG 1718/1720 3000 BR
TEMPO 1722/1806 BKN003
PROB40
TEMPO 1722/1806 0500 FG VV///
PROB30
TEMPO 1722/1806 5000 SHRA
ATIS : +33 2 99 16 81 50



MET'MAP, your aeronautical weather chart ! - Copyright ORBIFLY December 2007 - Disclaimer

ORBIFLY MET'MAP TEAM :

Programming & Development : Alexandra Zaïnal
Concept & Development : Baudouin d'Aumeries
Co-Development & Prog : Marc-Olivier Méhu
Technical & hardware support : Manuel Goepfert

Contact : metmap@orbifly.com




SOURCES & CREDITS :

   NOAA